createdAt,value
2022-11-07T00:00:17.265Z,50.53
2022-11-07T00:10:18.558Z,50.63
2022-11-07T00:20:19.786Z,50.72
2022-11-07T00:30:21.102Z,50.55
2022-11-07T00:40:22.372Z,50.61
2022-11-07T00:50:23.654Z,50.45
2022-11-07T01:00:24.866Z,50.54
2022-11-07T01:10:26.102Z,50.48
2022-11-07T01:20:27.356Z,50.45
2022-11-07T01:30:28.615Z,50.40
2022-11-07T01:40:29.862Z,50.41
2022-11-07T01:50:31.106Z,50.75
2022-11-07T02:00:32.346Z,50.75
2022-11-07T02:10:33.570Z,50.76
2022-11-07T02:20:34.868Z,50.89
2022-11-07T02:30:36.190Z,51.06
2022-11-07T02:40:37.470Z,51.19
2022-11-07T02:50:38.709Z,51.18
2022-11-07T03:00:40.169Z,51.40
2022-11-07T03:10:41.466Z,51.62
2022-11-07T03:20:42.718Z,51.61
2022-11-07T03:30:43.967Z,51.56
2022-11-07T03:40:45.313Z,51.67
2022-11-07T03:50:46.558Z,51.90
2022-11-07T04:00:47.796Z,51.90
2022-11-07T04:10:49.040Z,52.05
2022-11-07T04:20:50.278Z,52.05
2022-11-07T04:30:51.493Z,52.25
2022-11-07T04:40:52.742Z,52.20
2022-11-07T04:50:53.960Z,52.04
2022-11-07T05:00:55.160Z,52.19
2022-11-07T05:10:56.380Z,52.33
2022-11-07T05:20:57.592Z,52.66
2022-11-07T05:30:58.890Z,52.60
2022-11-07T05:41:00.117Z,52.66
2022-11-07T05:51:01.395Z,52.58
2022-11-07T06:01:02.636Z,52.81
2022-11-07T06:11:03.942Z,52.79
2022-11-07T06:21:05.192Z,52.92
2022-11-07T06:31:06.615Z,53.07
2022-11-07T06:41:07.984Z,52.78
2022-11-07T06:51:09.227Z,53.22
2022-11-07T07:01:10.593Z,53.18
2022-11-07T07:11:12.008Z,53.42
2022-11-07T07:21:13.340Z,53.68
2022-11-07T07:31:14.678Z,53.66
2022-11-07T07:41:16.039Z,53.91
2022-11-07T07:51:17.354Z,53.91
2022-11-07T08:01:18.749Z,54.07
2022-11-07T08:11:20.037Z,54.96
2022-11-07T08:21:21.301Z,55.48
2022-11-07T08:31:22.691Z,56.48
2022-11-07T08:41:24.054Z,56.82
2022-11-07T08:51:25.290Z,56.88
2022-11-07T09:01:26.724Z,56.41
2022-11-07T09:11:28.029Z,56.67
2022-11-07T09:21:29.334Z,56.30
2022-11-07T09:31:30.578Z,56.23
2022-11-07T09:41:31.894Z,56.14
2022-11-07T09:51:33.737Z,55.67
2022-11-07T10:01:35.735Z,55.69
2022-11-07T10:11:37.157Z,55.96
2022-11-07T10:21:39.276Z,55.91
2022-11-07T10:31:40.930Z,55.80
2022-11-07T10:41:42.289Z,55.99
2022-11-07T10:51:43.615Z,55.84
2022-11-07T11:01:44.895Z,55.84
2022-11-07T11:11:46.324Z,55.78
2022-11-07T11:21:47.689Z,55.43
2022-11-07T11:31:55.239Z,55.47
2022-11-07T11:41:56.821Z,55.22
2022-11-07T11:51:59.398Z,55.40
2022-11-07T12:02:00.823Z,55.31
2022-11-07T12:12:02.220Z,55.01
2022-11-07T12:22:03.587Z,55.36
2022-11-07T12:32:04.805Z,54.76
2022-11-07T12:42:06.172Z,54.56
2022-11-07T12:52:07.541Z,54.36
2022-11-07T13:02:08.834Z,54.08
2022-11-07T13:12:10.282Z,53.92
2022-11-07T13:22:13.482Z,53.93
2022-11-07T13:32:15.524Z,53.70
2022-11-07T13:42:16.860Z,53.19
2022-11-07T13:52:18.209Z,53.15
2022-11-07T14:02:19.682Z,52.93
2022-11-07T14:12:21.013Z,52.78
2022-11-07T14:22:22.245Z,52.61
2022-11-07T14:32:26.904Z,52.79
2022-11-07T14:42:30.776Z,52.40
2022-11-07T14:52:32.018Z,52.33
2022-11-07T15:02:33.510Z,52.34
2022-11-07T15:12:35.116Z,52.71
2022-11-07T15:22:37.905Z,52.48
2022-11-07T15:32:39.311Z,52.60
2022-11-07T15:42:40.668Z,52.65
2022-11-07T15:52:42.063Z,52.40
2022-11-07T16:02:43.493Z,52.44
2022-11-07T16:12:44.973Z,52.37
2022-11-07T16:22:46.360Z,52.76
2022-11-07T16:32:47.712Z,52.56
2022-11-07T16:42:49.031Z,52.67
2022-11-07T16:52:50.375Z,52.94
2022-11-07T17:02:51.744Z,52.92
2022-11-07T17:12:53.177Z,52.92
2022-11-07T17:22:54.515Z,52.88
2022-11-07T17:32:55.896Z,53.34
2022-11-07T17:42:58.445Z,53.31
2022-11-07T17:52:59.667Z,53.22
2022-11-07T18:03:01.112Z,53.23
2022-11-07T18:13:02.583Z,53.37
2022-11-07T18:23:08.150Z,53.25
2022-11-07T18:33:09.535Z,53.35
2022-11-07T18:43:12.035Z,53.11
2022-11-07T18:53:13.499Z,53.08
2022-11-07T19:03:15.038Z,53.50
2022-11-07T19:13:16.573Z,53.30
2022-11-07T19:23:18.212Z,53.61
2022-11-07T19:33:20.109Z,53.36
2022-11-07T19:43:21.581Z,53.19
2022-11-07T19:53:22.912Z,53.14
2022-11-07T20:03:24.223Z,53.26
2022-11-07T20:13:25.531Z,53.47
2022-11-07T20:23:26.879Z,53.51
2022-11-07T20:33:28.201Z,53.46
2022-11-07T20:43:29.555Z,53.57
2022-11-07T20:53:30.918Z,53.36
2022-11-07T21:03:32.221Z,53.83
2022-11-07T21:13:33.475Z,53.83
2022-11-07T21:23:34.801Z,53.45
2022-11-07T21:33:36.098Z,53.44
2022-11-07T21:43:37.406Z,53.34
2022-11-07T21:53:38.876Z,53.42
2022-11-07T22:14:01.496Z,53.13
2022-11-07T22:24:02.926Z,53.06
2022-11-07T22:34:04.234Z,53.25
2022-11-07T22:44:05.560Z,53.18
2022-11-07T22:54:06.790Z,53.13
2022-11-07T23:04:08.058Z,52.76
2022-11-07T23:14:09.364Z,52.55
2022-11-07T23:24:10.856Z,52.47
2022-11-07T23:34:12.080Z,52.44
2022-11-07T23:44:13.308Z,52.54
2022-11-07T23:54:14.528Z,52.50
